createdAt,value
2023-05-06T00:00:42.290Z,99.99
2023-05-06T00:03:49.960Z,99.99
2023-05-06T00:06:57.434Z,99.99
2023-05-06T00:10:05.883Z,99.99
2023-05-06T00:13:13.676Z,99.99
2023-05-06T00:16:20.778Z,99.99
2023-05-06T00:19:29.450Z,99.99
2023-05-06T00:22:36.432Z,99.99
2023-05-06T00:25:43.500Z,99.99
2023-05-06T00:28:51.996Z,99.99
2023-05-06T00:31:59.002Z,99.99
2023-05-06T00:35:05.952Z,99.99
2023-05-06T00:38:14.480Z,99.99
2023-05-06T00:41:21.375Z,99.99
2023-05-06T00:44:28.474Z,99.99
2023-05-06T00:47:35.494Z,99.99
2023-05-06T00:50:43.980Z,99.99
2023-05-06T00:53:51.229Z,99.99
2023-05-06T00:56:58.443Z,99.99
2023-05-06T01:00:07.009Z,99.99
2023-05-06T01:03:15.950Z,99.99
2023-05-06T01:06:23.740Z,99.99
2023-05-06T01:09:32.632Z,99.99
2023-05-06T01:12:39.670Z,99.99
2023-05-06T01:15:46.644Z,99.99
2023-05-06T01:18:55.134Z,99.99
2023-05-06T01:22:02.182Z,99.99
2023-05-06T01:25:09.560Z,99.99
2023-05-06T01:28:16.744Z,99.99
2023-05-06T01:31:25.163Z,99.99
2023-05-06T01:34:32.117Z,99.99
2023-05-06T01:37:39.147Z,99.99
2023-05-06T01:40:47.582Z,99.99
2023-05-06T01:43:54.672Z,99.99
2023-05-06T01:47:01.935Z,99.99
2023-05-06T01:50:10.521Z,99.99
2023-05-06T01:53:17.560Z,99.99
2023-05-06T01:56:24.879Z,99.99
2023-05-06T01:59:33.530Z,99.99
2023-05-06T02:02:40.736Z,99.99
2023-05-06T02:05:47.762Z,99.99
2023-05-06T02:08:56.058Z,99.99
2023-05-06T02:12:03.065Z,99.99
2023-05-06T02:15:10.159Z,99.99
2023-05-06T02:18:17.239Z,99.99
2023-05-06T02:21:25.646Z,99.99
2023-05-06T02:24:32.706Z,99.99
2023-05-06T02:27:39.833Z,99.99
2023-05-06T02:30:48.189Z,99.99
2023-05-06T02:33:55.333Z,99.99
2023-05-06T02:37:02.475Z,99.99
2023-05-06T02:40:11.009Z,99.99
2023-05-06T02:43:17.989Z,99.99
2023-05-06T02:46:25.134Z,99.99
2023-05-06T02:49:33.335Z,99.99
2023-05-06T02:52:40.317Z,99.99
2023-05-06T02:55:47.308Z,99.99
2023-05-06T02:58:54.551Z,99.99
2023-05-06T03:02:03.003Z,99.99
2023-05-06T03:05:10.158Z,99.99
2023-05-06T03:08:17.249Z,99.99
2023-05-06T03:11:25.590Z,99.99
2023-05-06T03:14:32.703Z,99.99
2023-05-06T03:17:39.637Z,99.99
2023-05-06T03:20:48.368Z,99.99
2023-05-06T03:23:55.428Z,99.99
2023-05-06T03:27:02.428Z,99.99
2023-05-06T03:30:10.720Z,99.99
2023-05-06T03:33:17.634Z,99.99
2023-05-06T03:36:24.516Z,99.99
2023-05-06T03:39:31.469Z,99.99
2023-05-06T03:42:39.694Z,99.99
2023-05-06T03:45:46.792Z,99.99
2023-05-06T03:48:53.760Z,99.99
2023-05-06T03:52:02.257Z,99.99
2023-05-06T03:55:09.353Z,99.99
2023-05-06T03:58:17.179Z,99.99
2023-05-06T04:01:25.577Z,99.99
2023-05-06T04:04:32.741Z,99.99
2023-05-06T04:07:40.044Z,99.99
2023-05-06T04:10:48.620Z,99.99
2023-05-06T04:13:56.000Z,99.99
2023-05-06T04:17:03.186Z,99.99
2023-05-06T04:20:10.678Z,99.99
2023-05-06T04:23:19.186Z,99.99
2023-05-06T04:26:26.391Z,99.99
2023-05-06T04:29:33.467Z,99.99
2023-05-06T04:32:42.272Z,99.99
2023-05-06T04:35:49.734Z,99.99
2023-05-06T04:38:56.928Z,99.99
2023-05-06T04:42:05.381Z,99.99
2023-05-06T04:45:13.347Z,99.99
2023-05-06T04:48:20.501Z,99.99
2023-05-06T04:51:28.965Z,99.99
2023-05-06T04:54:36.058Z,99.99
2023-05-06T04:57:43.252Z,99.99
2023-05-06T05:00:52.112Z,99.99
2023-05-06T05:03:59.254Z,99.99
2023-05-06T05:07:06.537Z,99.99
2023-05-06T05:10:14.426Z,99.99
2023-05-06T05:13:22.992Z,99.99
2023-05-06T05:16:30.160Z,99.99
2023-05-06T05:19:37.421Z,99.99
2023-05-06T05:22:46.092Z,99.99
2023-05-06T05:25:53.591Z,99.99
2023-05-06T05:29:00.621Z,99.99
2023-05-06T05:32:09.434Z,99.99
2023-05-06T05:35:16.549Z,99.99
2023-05-06T05:38:23.626Z,99.99
2023-05-06T05:41:32.130Z,99.99
2023-05-06T05:44:39.297Z,99.99
2023-05-06T05:47:47.034Z,99.99
2023-05-06T05:50:54.346Z,99.99
2023-05-06T05:54:03.089Z,99.99
2023-05-06T05:57:10.043Z,99.99
2023-05-06T06:00:18.928Z,99.99
2023-05-06T06:03:19.223Z,99.99
2023-05-06T06:06:26.471Z,99.99
2023-05-06T06:09:33.477Z,99.99
2023-05-06T06:12:42.057Z,99.99
2023-05-06T06:15:49.093Z,99.99
2023-05-06T06:18:56.654Z,99.99
2023-05-06T06:22:05.684Z,99.99
2023-05-06T06:25:15.014Z,99.99
2023-05-06T06:28:22.190Z,99.99
2023-05-06T06:31:29.508Z,99.99
2023-05-06T06:34:38.103Z,99.99
2023-05-06T06:37:45.394Z,99.99
2023-05-06T06:40:53.193Z,99.99
2023-05-06T06:44:02.216Z,99.99
2023-05-06T06:47:09.638Z,99.99
2023-05-06T06:50:16.815Z,99.99
2023-05-06T06:53:25.322Z,99.99
2023-05-06T06:56:32.331Z,99.99
2023-05-06T06:59:39.348Z,99.99
2023-05-06T07:02:47.782Z,99.99
2023-05-06T07:05:54.646Z,99.99
2023-05-06T07:09:01.803Z,99.99
2023-05-06T07:12:08.781Z,99.99
2023-05-06T07:15:17.203Z,99.99
2023-05-06T07:18:24.072Z,99.99
2023-05-06T07:21:30.884Z,99.99
2023-05-06T07:24:39.199Z,99.99
2023-05-06T07:27:46.155Z,99.66
2023-05-06T07:30:53.103Z,99.97
2023-05-06T07:34:01.449Z,99.97
2023-05-06T07:37:08.431Z,99.99
2023-05-06T07:40:15.442Z,99.99
2023-05-06T07:43:23.826Z,99.99
2023-05-06T07:46:31.011Z,99.97
2023-05-06T07:49:38.063Z,99.99
2023-05-06T07:52:45.182Z,99.99
2023-05-06T07:55:53.659Z,99.99
2023-05-06T07:59:00.582Z,99.99
2023-05-06T08:02:07.791Z,99.99
2023-05-06T08:05:16.210Z,99.22
2023-05-06T08:08:23.199Z,98.16
2023-05-06T08:11:30.193Z,98.02
2023-05-06T08:14:38.706Z,95.58
2023-05-06T08:17:45.912Z,93.90
2023-05-06T08:20:52.874Z,95.28
2023-05-06T08:24:01.420Z,95.23
2023-05-06T08:27:08.477Z,94.18
2023-05-06T08:30:15.527Z,92.33
2023-05-06T08:33:24.004Z,94.37
2023-05-06T08:36:31.132Z,94.02
2023-05-06T08:39:38.092Z,93.71
2023-05-06T08:42:45.020Z,90.77
2023-05-06T08:45:53.313Z,92.29
2023-05-06T08:49:00.161Z,91.38
2023-05-06T08:52:07.049Z,92.29
2023-05-06T08:55:15.382Z,91.54
2023-05-06T08:58:22.298Z,92.36
2023-05-06T09:01:29.423Z,91.00
2023-05-06T09:04:38.820Z,88.84
2023-05-06T09:07:46.374Z,88.53
2023-05-06T09:10:53.312Z,88.74
2023-05-06T09:14:02.240Z,90.25
2023-05-06T09:17:09.212Z,86.82
2023-05-06T09:20:16.068Z,87.28
2023-05-06T09:23:23.671Z,83.50
2023-05-06T09:26:31.925Z,86.53
2023-05-06T09:29:39.438Z,84.43
2023-05-06T09:32:46.927Z,82.65
2023-05-06T09:35:55.614Z,82.28
2023-05-06T09:39:02.873Z,84.19
2023-05-06T09:42:10.463Z,85.60
2023-05-06T09:45:18.884Z,85.60
2023-05-06T09:48:25.724Z,86.77
2023-05-06T09:51:32.958Z,85.72
2023-05-06T09:54:41.640Z,85.22
2023-05-06T09:57:48.983Z,82.89
2023-05-06T10:00:56.402Z,83.96
2023-05-06T10:04:04.037Z,83.92
2023-05-06T10:07:12.997Z,78.50
2023-05-06T10:10:20.817Z,80.46
2023-05-06T10:13:28.059Z,83.26
2023-05-06T10:16:36.724Z,83.05
2023-05-06T10:19:44.092Z,82.24
2023-05-06T10:22:51.203Z,83.86
2023-05-06T10:25:59.814Z,80.73
2023-05-06T10:29:07.062Z,82.41
2023-05-06T10:32:14.227Z,81.96
2023-05-06T10:35:22.959Z,77.73
2023-05-06T10:38:30.837Z,79.74
2023-05-06T10:41:37.879Z,79.14
2023-05-06T10:44:46.201Z,80.62
2023-05-06T10:47:55.027Z,80.24
2023-05-06T10:51:02.261Z,78.63
2023-05-06T10:54:09.907Z,77.69
2023-05-06T10:57:18.603Z,78.53
2023-05-06T11:00:25.982Z,79.50
2023-05-06T11:03:33.573Z,77.79
2023-05-06T11:06:42.387Z,76.78
2023-05-06T11:09:49.871Z,77.99
2023-05-06T11:12:56.843Z,75.74
2023-05-06T11:16:05.835Z,75.56
2023-05-06T11:19:13.614Z,73.41
2023-05-06T11:22:20.680Z,72.67
2023-05-06T11:25:29.742Z,72.31
2023-05-06T11:28:37.035Z,72.54
2023-05-06T11:31:44.238Z,76.14
2023-05-06T11:34:52.029Z,73.75
2023-05-06T11:38:00.402Z,74.73
2023-05-06T11:41:08.699Z,75.34
2023-05-06T11:44:17.141Z,72.75
2023-05-06T11:47:25.898Z,75.47
2023-05-06T11:50:33.648Z,75.23
2023-05-06T11:53:41.400Z,76.10
2023-05-06T11:56:50.078Z,72.64
2023-05-06T11:59:57.250Z,74.52
2023-05-06T12:03:04.502Z,72.27
2023-05-06T12:06:13.553Z,78.78
2023-05-06T12:09:21.011Z,73.35
2023-05-06T12:12:28.256Z,73.58
2023-05-06T12:15:35.752Z,74.42
2023-05-06T12:18:44.441Z,74.52
2023-05-06T12:21:51.911Z,73.85
2023-05-06T12:24:59.545Z,74.69
2023-05-06T12:28:07.945Z,76.54
2023-05-06T12:31:15.610Z,75.47
2023-05-06T12:34:23.224Z,78.36
2023-05-06T12:37:31.644Z,79.43
2023-05-06T12:40:39.423Z,76.84
2023-05-06T12:43:47.376Z,76.60
2023-05-06T12:46:55.825Z,72.97
2023-05-06T12:50:03.495Z,73.88
2023-05-06T12:53:10.544Z,76.04
2023-05-06T12:56:17.805Z,76.31
2023-05-06T12:59:26.445Z,76.81
2023-05-06T13:02:33.603Z,75.80
2023-05-06T13:05:40.615Z,76.91
2023-05-06T13:08:49.484Z,75.16
2023-05-06T13:11:56.941Z,75.46
2023-05-06T13:15:04.281Z,73.41
2023-05-06T13:18:13.098Z,74.29
2023-05-06T13:21:21.003Z,75.56
2023-05-06T13:24:28.353Z,72.00
2023-05-06T13:27:37.096Z,72.00
2023-05-06T13:30:44.768Z,70.39
2023-05-06T13:33:51.853Z,70.79
2023-05-06T13:36:59.258Z,72.07
2023-05-06T13:40:08.361Z,71.80
2023-05-06T13:43:15.453Z,74.39
2023-05-06T13:46:23.303Z,75.63
2023-05-06T13:49:32.821Z,76.84
2023-05-06T13:52:39.964Z,78.70
2023-05-06T13:55:47.898Z,78.09
2023-05-06T13:58:56.491Z,78.50
2023-05-06T14:02:05.565Z,76.42
2023-05-06T14:05:04.236Z,79.61
2023-05-06T14:08:12.844Z,77.19
2023-05-06T14:11:19.979Z,77.49
2023-05-06T14:14:27.817Z,78.26
2023-05-06T14:17:35.350Z,77.01
2023-05-06T14:20:43.819Z,74.93
2023-05-06T14:23:51.030Z,78.76
2023-05-06T14:26:58.628Z,77.86
2023-05-06T14:30:09.371Z,77.35
2023-05-06T14:33:18.239Z,77.45
2023-05-06T14:36:25.132Z,78.96
2023-05-06T14:39:34.389Z,76.84
2023-05-06T14:42:41.730Z,76.84
2023-05-06T14:45:49.893Z,78.28
2023-05-06T14:46:33.489Z,77.17
2023-05-06T14:49:42.515Z,73.82
2023-05-06T14:52:50.361Z,75.02
2023-05-06T14:55:58.489Z,76.37
2023-05-06T14:59:06.918Z,76.40
2023-05-06T15:02:14.424Z,74.73
2023-05-06T15:05:22.038Z,75.74
2023-05-06T15:08:30.893Z,76.14
2023-05-06T15:11:38.867Z,78.32
2023-05-06T15:14:48.276Z,76.27
2023-05-06T15:17:57.087Z,77.01
2023-05-06T15:21:07.100Z,77.62
2023-05-06T15:24:15.504Z,76.04
2023-05-06T15:27:23.424Z,76.34
2023-05-06T15:30:32.099Z,76.14
2023-05-06T15:35:28.255Z,76.58
2023-05-06T15:38:24.640Z,76.51
2023-05-06T15:41:34.478Z,77.53
2023-05-06T15:44:41.404Z,78.03
2023-05-06T15:47:49.497Z,78.19
2023-05-06T15:50:58.805Z,77.42
2023-05-06T15:54:06.540Z,78.23
2023-05-06T15:57:14.884Z,77.56
2023-05-06T16:00:24.805Z,78.61
2023-05-06T16:03:32.049Z,78.17
2023-05-06T16:06:39.357Z,78.27
2023-05-06T16:09:48.917Z,77.80
2023-05-06T16:12:56.913Z,78.61
2023-05-06T16:16:04.561Z,78.44
2023-05-06T16:19:12.077Z,77.94
2023-05-06T16:22:21.719Z,78.17
2023-05-06T16:25:29.205Z,78.52
2023-05-06T16:28:39.401Z,79.16
2023-05-06T16:31:38.644Z,80.31
2023-05-06T16:34:46.304Z,80.31
2023-05-06T16:37:53.590Z,79.80
2023-05-06T16:41:03.548Z,80.76
2023-05-06T16:44:12.506Z,80.99
2023-05-06T16:47:20.968Z,81.10
2023-05-06T16:50:29.917Z,81.74
2023-05-06T16:53:37.543Z,82.35
2023-05-06T16:56:51.987Z,83.00
2023-05-06T16:59:49.011Z,82.19
2023-05-06T17:02:58.019Z,82.50
2023-05-06T17:06:05.741Z,82.17
2023-05-06T17:09:13.475Z,82.67
2023-05-06T17:12:22.402Z,82.81
2023-05-06T17:15:30.070Z,84.34
2023-05-06T17:18:38.537Z,83.87
2023-05-06T17:21:47.170Z,84.17
2023-05-06T17:24:54.922Z,83.97
2023-05-06T17:28:02.336Z,84.42
2023-05-06T17:31:11.438Z,84.01
2023-05-06T17:34:19.166Z,83.91
2023-05-06T17:37:27.916Z,83.50
2023-05-06T17:40:37.488Z,84.45
2023-05-06T17:43:45.364Z,84.66
2023-05-06T17:46:53.393Z,85.68
2023-05-06T17:50:01.127Z,86.02
2023-05-06T17:53:11.123Z,86.22
2023-05-06T17:56:18.482Z,86.43
2023-05-06T17:59:28.217Z,86.88
2023-05-06T18:02:37.879Z,86.68
2023-05-06T18:05:45.646Z,87.02
2023-05-06T18:08:53.193Z,87.67
2023-05-06T18:12:02.261Z,88.18
2023-05-06T18:15:09.830Z,88.53
2023-05-06T18:18:17.811Z,88.93
2023-05-06T18:21:27.320Z,89.04
2023-05-06T18:24:35.288Z,89.34
2023-05-06T18:27:43.161Z,89.25
2023-05-06T18:30:50.967Z,89.39
2023-05-06T18:33:59.944Z,89.59
2023-05-06T18:37:07.477Z,89.69
2023-05-06T18:40:15.262Z,89.90
2023-05-06T18:43:24.427Z,89.69
2023-05-06T18:46:32.544Z,90.31
2023-05-06T18:49:39.730Z,90.20
2023-05-06T18:52:49.696Z,90.14
2023-05-06T18:55:57.170Z,90.25
2023-05-06T18:59:05.266Z,91.00
2023-05-06T19:02:14.541Z,90.70
2023-05-06T19:05:22.396Z,91.00
2023-05-06T19:08:30.398Z,91.11
2023-05-06T19:11:39.377Z,91.52
2023-05-06T19:14:46.742Z,91.31
2023-05-06T19:17:54.184Z,91.41
2023-05-06T19:21:02.501Z,91.52
2023-05-06T19:24:12.181Z,91.76
2023-05-06T19:27:20.992Z,92.17
2023-05-06T19:30:28.302Z,91.86
2023-05-06T19:33:37.638Z,91.76
2023-05-06T19:36:45.514Z,91.86
2023-05-06T19:39:54.036Z,91.86
2023-05-06T19:40:37.282Z,91.76
2023-05-06T19:43:46.712Z,92.27
2023-05-06T19:46:54.564Z,92.07
2023-05-06T19:50:02.118Z,92.23
2023-05-06T19:53:11.054Z,91.52
2023-05-06T19:56:18.883Z,91.41
2023-05-06T19:59:26.848Z,91.31
2023-05-06T20:02:35.297Z,91.82
2023-05-06T20:05:43.842Z,91.11
2023-05-06T20:08:51.477Z,91.41
2023-05-06T20:11:59.073Z,91.52
2023-05-06T20:15:08.760Z,90.19
2023-05-06T20:18:16.035Z,90.29
2023-05-06T20:21:23.640Z,90.39
2023-05-06T20:24:33.160Z,89.78
2023-05-06T20:27:40.702Z,89.78
2023-05-06T20:30:48.237Z,90.02
2023-05-06T20:33:57.335Z,90.02
2023-05-06T20:37:04.830Z,90.06
2023-05-06T20:40:12.313Z,90.82
2023-05-06T20:43:21.445Z,91.54
2023-05-06T20:46:29.086Z,91.69
2023-05-06T20:49:36.239Z,92.19
2023-05-06T20:52:44.072Z,92.40
2023-05-06T20:55:52.863Z,92.81
2023-05-06T20:59:00.152Z,92.50
2023-05-06T21:02:07.978Z,92.66
2023-05-06T21:05:17.276Z,92.10
2023-05-06T21:08:24.968Z,91.99
2023-05-06T21:11:32.889Z,92.19
2023-05-06T21:14:41.604Z,91.99
2023-05-06T21:17:49.311Z,92.40
2023-05-06T21:20:56.301Z,92.30
2023-05-06T21:24:05.248Z,92.40
2023-05-06T21:27:13.544Z,91.99
2023-05-06T21:30:21.656Z,92.10
2023-05-06T21:33:30.019Z,92.30
2023-05-06T21:36:37.873Z,92.40
2023-05-06T21:39:45.569Z,92.46
2023-05-06T21:42:53.159Z,91.99
2023-05-06T21:46:02.530Z,92.46
2023-05-06T21:49:10.342Z,91.95
2023-05-06T21:52:17.617Z,91.23
2023-05-06T21:55:26.344Z,91.13
2023-05-06T21:58:34.591Z,91.33
2023-05-06T22:01:41.728Z,91.23
2023-05-06T22:04:50.683Z,91.44
2023-05-06T22:07:58.307Z,91.44
2023-05-06T22:11:05.474Z,91.48
2023-05-06T22:14:14.616Z,91.74
2023-05-06T22:17:22.287Z,91.23
2023-05-06T22:20:30.001Z,91.33
2023-05-06T22:23:37.975Z,91.44
2023-05-06T22:26:46.891Z,91.48
2023-05-06T22:29:54.459Z,91.69
2023-05-06T22:33:01.840Z,91.83
2023-05-06T22:36:10.491Z,92.03
2023-05-06T22:39:18.249Z,92.44
2023-05-06T22:42:25.514Z,92.44
2023-05-06T22:45:34.194Z,91.93
2023-05-06T22:48:41.907Z,92.03
2023-05-06T22:51:50.020Z,92.59
2023-05-06T22:54:58.810Z,92.34
2023-05-06T22:58:06.780Z,92.03
2023-05-06T23:01:15.036Z,91.83
2023-05-06T23:04:22.044Z,92.18
2023-05-06T23:07:31.019Z,92.85
2023-05-06T23:10:38.423Z,92.55
2023-05-06T23:13:45.915Z,92.55
2023-05-06T23:16:54.736Z,92.34
2023-05-06T23:20:03.240Z,92.03
2023-05-06T23:23:10.597Z,92.34
2023-05-06T23:26:19.902Z,92.14
2023-05-06T23:29:27.821Z,92.55
2023-05-06T23:32:34.804Z,92.44
2023-05-06T23:35:43.980Z,92.44
2023-05-06T23:38:52.120Z,92.79
2023-05-06T23:41:59.509Z,93.00
2023-05-06T23:45:09.331Z,93.00
2023-05-06T23:48:17.631Z,93.30
2023-05-06T23:51:25.557Z,93.41
2023-05-06T23:54:33.174Z,93.30
2023-05-06T23:57:41.789Z,93.00
